Time;durP1;ratioP1;P1;durP2;ratioP2;P2;SDS_P1;SDS_P2;PMS_P1;PMS_P2;Temp;Humidity;BMP_temperature;BMP_pressure;BME280_temperature;BME280_humidity;BME280_pressure;Samples;Min_cycle;Max_cycle;Signal;HPM_P1;HPM_P2
2024/01/10 00:01:43;;;;;;;30.23;19.50;;;-3.80;1.00;;;;;;5095472;28;20188;-40
2024/01/10 00:04:09;;;;;;;26.70;18.40;;;-3.80;1.00;;;;;;5095388;28;20191;-42
2024/01/10 00:06:35;;;;;;;28.20;18.63;;;-3.80;1.00;;;;;;5096046;28;20427;-40
2024/01/10 00:09:02;;;;;;;26.20;18.80;;;-3.90;1.00;;;;;;5096062;28;20518;-42
2024/01/10 00:11:29;;;;;;;31.73;20.00;;;-3.90;1.00;;;;;;5096153;28;20540;-41
2024/01/10 00:13:59;;;;;;;26.77;17.93;;;-3.90;1.00;;;;;;5095735;28;20454;-41
2024/01/10 00:16:26;;;;;;;28.90;19.00;;;-3.90;1.00;;;;;;5095282;28;20177;-42
2024/01/10 00:18:51;;;;;;;28.30;19.00;;;-3.90;1.00;;;;;;5095671;28;20880;-45
2024/01/10 00:21:18;;;;;;;33.20;20.17;;;-3.90;1.00;;;;;;5095312;28;20466;-44
2024/01/10 00:23:45;;;;;;;31.00;20.00;;;-3.90;1.00;;;;;;5077966;28;20195;-41
2024/01/10 00:26:10;;;;;;;30.50;21.20;;;-3.90;1.00;;;;;;5093925;28;20429;-40
2024/01/10 00:28:36;;;;;;;27.77;20.13;;;-3.80;1.00;;;;;;5095877;28;20414;-42
2024/01/10 00:31:01;;;;;;;26.90;19.13;;;-3.80;1.00;;;;;;5096559;28;20250;-41
2024/01/10 00:33:27;;;;;;;30.70;20.60;;;-3.80;1.00;;;;;;5096610;28;20259;-41
2024/01/10 00:35:52;;;;;;;27.70;18.97;;;-3.80;99.90;;;;;;5096068;28;20256;-42
2024/01/10 00:38:18;;;;;;;24.13;18.10;;;-3.80;99.90;;;;;;5094894;28;20189;-42
2024/01/10 00:40:44;;;;;;;29.73;19.80;;;-3.80;99.90;;;;;;5094073;28;20211;-42
2024/01/10 00:43:10;;;;;;;26.30;17.70;;;-3.80;99.90;;;;;;5094803;28;20183;-42
2024/01/10 00:45:35;;;;;;;30.77;19.60;;;-3.80;99.90;;;;;;5093635;28;20287;-41
2024/01/10 00:48:01;;;;;;;26.03;17.90;;;-3.80;99.90;;;;;;5095677;28;20659;-40
2024/01/10 00:50:26;;;;;;;26.73;18.80;;;-3.80;99.90;;;;;;5095220;28;20188;-41
2024/01/10 00:52:52;;;;;;;27.53;19.37;;;-3.70;99.90;;;;;;5095578;28;20180;-41
2024/01/10 00:55:18;;;;;;;28.80;19.53;;;-3.70;99.90;;;;;;5095972;28;20180;-39
2024/01/10 00:57:43;;;;;;;31.20;18.23;;;-3.70;99.90;;;;;;5096561;28;20219;-40
2024/01/10 01:00:10;;;;;;;30.40;18.50;;;-3.70;99.90;;;;;;5096028;28;20265;-43
2024/01/10 01:02:36;;;;;;;27.47;19.83;;;-3.70;99.90;;;;;;5095738;28;20634;-40
2024/01/10 01:05:03;;;;;;;30.37;20.50;;;-3.70;21.70;;;;;;5096645;28;20410;-41
2024/01/10 01:07:28;;;;;;;31.10;19.53;;;-3.70;1.00;;;;;;5079076;28;20410;-41
2024/01/10 01:09:54;;;;;;;30.97;20.47;;;-3.70;12.40;;;;;;5097153;28;20430;-40
2024/01/10 01:12:19;;;;;;;28.93;20.00;;;-3.60;68.00;;;;;;5096167;28;20180;-43
2024/01/10 01:14:45;;;;;;;26.57;19.30;;;-3.60;99.90;;;;;;5095711;28;20613;-40
2024/01/10 01:17:11;;;;;;;24.50;18.67;;;-3.60;99.90;;;;;;5096270;28;20172;-42
2024/01/10 01:19:36;;;;;;;32.93;21.20;;;-3.60;17.10;;;;;;5097167;28;20214;-40
2024/01/10 01:22:02;;;;;;;27.57;19.03;;;-3.50;1.00;;;;;;5098893;28;20458;-41
2024/01/10 01:24:27;;;;;;;25.13;17.70;;;-3.50;1.00;;;;;;5081684;28;20194;-43
2024/01/10 01:26:53;;;;;;;27.73;19.50;;;-3.50;1.00;;;;;;5099776;28;20288;-41
2024/01/10 01:29:20;;;;;;;29.27;18.90;;;-3.40;1.00;;;;;;5099549;28;20229;-40
2024/01/10 01:31:46;;;;;;;23.57;16.30;;;-3.40;1.00;;;;;;5098509;28;20465;-41
2024/01/10 01:34:12;;;;;;;19.30;14.20;;;-3.40;99.90;;;;;;5098195;28;20649;-42
2024/01/10 01:36:37;;;;;;;23.37;14.20;;;-3.40;1.00;;;;;;5097981;28;20207;-42
2024/01/10 01:39:03;;;;;;;11.20;6.73;;;-3.30;99.90;;;;;;5099108;28;20461;-39
2024/01/10 01:41:29;;;;;;;18.80;12.70;;;-2.80;1.00;;;;;;5100348;28;20197;-40
2024/01/10 01:43:54;;;;;;;28.00;20.17;;;-1.30;1.00;;;;;;5100165;28;20415;-42
2024/01/10 01:46:20;;;;;;;24.73;18.13;;;-0.10;1.00;;;;;;5099840;28;20256;-41
2024/01/10 01:48:46;;;;;;;22.13;16.80;;;-0.20;1.00;;;;;;5098540;28;20577;-40
2024/01/10 01:51:12;;;;;;;24.07;16.33;;;-0.70;1.00;;;;;;5099926;28;20646;-41
2024/01/10 01:53:38;;;;;;;22.53;17.60;;;-1.10;1.00;;;;;;5099496;28;20430;-44
2024/01/10 01:56:08;;;;;;;23.60;18.43;;;-1.40;1.00;;;;;;5098544;28;20905;-40
2024/01/10 01:58:35;;;;;;;25.70;17.63;;;-1.70;99.90;;;;;;5099533;28;20176;-41
2024/01/10 02:01:02;;;;;;;24.83;15.60;;;-1.90;53.90;;;;;;5098070;28;20878;-41
2024/01/10 02:03:28;;;;;;;20.97;15.73;;;-2.10;99.90;;;;;;5097971;28;20525;-41
2024/01/10 02:05:54;;;;;;;23.80;15.50;;;-2.30;1.00;;;;;;5099877;28;20533;-40
2024/01/10 02:08:19;;;;;;;21.10;14.60;;;-2.40;1.00;;;;;;5097804;28;20513;-41
2024/01/10 02:10:45;;;;;;;27.60;16.17;;;-2.50;99.90;;;;;;5098968;28;20466;-44
2024/01/10 02:13:11;;;;;;;27.10;15.10;;;-2.60;1.00;;;;;;5081476;28;20184;-41
2024/01/10 02:15:39;;;;;;;20.70;15.10;;;-2.60;99.90;;;;;;5097901;28;20204;-40
2024/01/10 02:18:05;;;;;;;22.27;14.47;;;-2.70;99.90;;;;;;5080514;28;20257;-39
2024/01/10 02:20:31;;;;;;;23.67;14.53;;;-2.80;99.90;;;;;;5098945;28;20619;-43
2024/01/10 02:22:57;;;;;;;20.40;13.80;;;-2.90;99.90;;;;;;5098724;28;20403;-41
2024/01/10 02:25:23;;;;;;;23.50;15.23;;;-2.90;99.90;;;;;;5097519;28;20427;-39
2024/01/10 02:27:48;;;;;;;21.27;14.17;;;-3.00;99.90;;;;;;5098278;28;20566;-39
2024/01/10 02:30:14;;;;;;;21.53;14.27;;;-3.00;99.90;;;;;;5097428;28;20220;-41
2024/01/10 02:32:39;;;;;;;24.03;13.33;;;-3.10;99.90;;;;;;5097373;28;20188;-42
2024/01/10 02:35:06;;;;;;;24.20;14.60;;;-3.10;99.90;;;;;;5097393;28;20312;-41
2024/01/10 02:37:31;;;;;;;23.97;15.83;;;-3.10;99.90;;;;;;5098172;28;20219;-40
2024/01/10 02:39:57;;;;;;;22.27;14.60;;;-3.10;99.90;;;;;;5100924;28;20481;-41
2024/01/10 02:42:23;;;;;;;22.90;16.20;;;-3.00;99.90;;;;;;5100086;28;20498;-41
2024/01/10 02:44:49;;;;;;;27.77;13.70;;;-3.10;99.90;;;;;;5098700;28;20184;-43
2024/01/10 02:47:16;;;;;;;23.30;14.37;;;-3.00;99.90;;;;;;5100445;28;20430;-43
2024/01/10 02:49:42;;;;;;;22.77;14.40;;;-3.10;99.90;;;;;;5100362;28;20426;-39
2024/01/10 02:52:07;;;;;;;22.07;14.83;;;-3.10;99.90;;;;;;5099041;28;20924;-43
2024/01/10 02:54:33;;;;;;;24.70;15.47;;;-3.20;99.90;;;;;;5099833;28;20540;-51
2024/01/10 02:56:58;;;;;;;22.00;13.73;;;-3.20;99.90;;;;;;5098912;28;20195;-43
2024/01/10 02:59:24;;;;;;;21.47;14.60;;;-3.20;99.90;;;;;;5097083;28;20610;-41
2024/01/10 03:01:49;;;;;;;24.33;14.23;;;-3.20;99.90;;;;;;5096680;28;20191;-42
2024/01/10 03:04:15;;;;;;;20.57;13.90;;;-3.20;99.90;;;;;;5097495;28;20192;-41
2024/01/10 03:06:40;;;;;;;23.50;14.57;;;-3.20;99.90;;;;;;5096479;28;20659;-41
2024/01/10 03:09:06;;;;;;;20.17;13.63;;;-3.20;99.90;;;;;;5097735;28;20176;-41
2024/01/10 03:11:34;;;;;;;19.50;13.67;;;-3.20;99.90;;;;;;5097697;28;20180;-44
2024/01/10 03:14:07;;;;;;;23.67;14.70;;;-3.10;99.90;;;;;;5097343;28;20430;-42
2024/01/10 03:16:32;;;;;;;25.00;14.80;;;-3.20;99.90;;;;;;5097228;28;20418;-42
2024/01/10 03:18:58;;;;;;;19.83;14.80;;;-3.20;99.90;;;;;;5096370;28;20452;-42
2024/01/10 03:21:25;;;;;;;21.13;14.70;;;-3.20;99.90;;;;;;5095806;28;20180;-41
2024/01/10 03:24:00;;;;;;;23.60;15.63;;;-3.20;99.90;;;;;;5097717;28;20431;-41
2024/01/10 03:26:27;;;;;;;23.60;15.87;;;-3.20;99.90;;;;;;5097390;28;20487;-45
2024/01/10 03:28:53;;;;;;;22.93;16.00;;;-3.20;99.90;;;;;;5096130;28;20697;-42
2024/01/10 03:31:19;;;;;;;23.53;15.80;;;-3.20;99.90;;;;;;5097479;28;20526;-43
2024/01/10 03:33:44;;;;;;;24.70;15.00;;;-3.20;99.90;;;;;;5096043;28;20426;-41
2024/01/10 03:36:15;;;;;;;22.50;15.27;;;-3.20;99.90;;;;;;5096592;28;20192;-41
2024/01/10 03:38:40;;;;;;;26.47;15.83;;;-3.30;99.90;;;;;;5096072;28;20419;-40
2024/01/10 03:41:06;;;;;;;21.73;14.07;;;-3.30;99.90;;;;;;5094910;28;20466;-42
2024/01/10 03:43:32;;;;;;;24.67;16.03;;;-3.30;99.90;;;;;;5095059;28;20184;-46
2024/01/10 03:45:58;;;;;;;23.83;15.73;;;-3.30;99.90;;;;;;5094821;28;20203;-41
2024/01/10 03:48:23;;;;;;;22.03;14.57;;;-3.40;99.90;;;;;;5096703;28;20389;-41
2024/01/10 03:50:49;;;;;;;26.13;14.50;;;-3.50;99.90;;;;;;5098200;28;20532;-41
2024/01/10 03:53:15;;;;;;;22.47;14.20;;;-3.50;99.90;;;;;;5096928;28;20421;-42
2024/01/10 03:55:40;;;;;;;28.43;14.60;;;-3.50;99.90;;;;;;5097331;28;20188;-42
2024/01/10 03:58:06;;;;;;;25.60;15.60;;;-3.50;99.90;;;;;;5096555;28;20188;-41
2024/01/10 04:00:32;;;;;;;21.80;15.57;;;-3.50;99.90;;;;;;5095591;28;20489;-40
2024/01/10 04:02:57;;;;;;;21.83;14.90;;;-3.50;99.90;;;;;;5095716;28;20263;-40
2024/01/10 04:05:25;;;;;;;21.30;14.40;;;-3.50;99.90;;;;;;5096417;28;20501;-41
2024/01/10 04:07:51;;;;;;;27.17;15.27;;;-3.60;99.90;;;;;;5096665;28;20486;-41
2024/01/10 04:10:16;;;;;;;23.77;14.97;;;-3.60;99.90;;;;;;5094684;28;20572;-41
2024/01/10 04:12:43;;;;;;;20.30;14.30;;;-3.60;99.90;;;;;;5094745;28;20525;-41
2024/01/10 04:15:09;;;;;;;21.43;14.17;;;-3.60;99.90;;;;;;5094922;28;20180;-41
2024/01/10 04:17:34;;;;;;;26.03;15.10;;;-3.60;99.90;;;;;;5095000;28;20426;-43
2024/01/10 04:20:00;;;;;;;21.80;15.00;;;-3.70;99.90;;;;;;5094901;28;20470;-41
2024/01/10 04:22:25;;;;;;;26.17;16.03;;;-3.70;1.00;;;;;;5094873;28;20562;-44
2024/01/10 04:24:51;;;;;;;24.47;15.63;;;-3.70;1.00;;;;;;5095209;28;20447;-42
2024/01/10 04:27:18;;;;;;;24.83;15.87;;;-3.70;1.00;;;;;;5095756;28;20275;-40
2024/01/10 04:29:44;;;;;;;23.87;16.03;;;-3.70;1.00;;;;;;5096306;28;20406;-43
2024/01/10 04:32:09;;;;;;;26.13;15.73;;;-3.70;1.00;;;;;;5096169;28;20429;-49
2024/01/10 04:34:35;;;;;;;20.90;14.10;;;-3.60;1.00;;;;;;5096346;28;20485;-41
2024/01/10 04:37:01;;;;;;;21.90;15.10;;;-3.60;1.00;;;;;;5096085;28;20234;-45
2024/01/10 04:39:26;;;;;;;22.00;16.37;;;-3.70;1.00;;;;;;5095604;28;20280;-42
2024/01/10 04:41:52;;;;;;;24.63;15.60;;;-3.70;1.00;;;;;;5094853;28;20482;-41
2024/01/10 04:44:17;;;;;;;23.13;15.20;;;-3.70;1.00;;;;;;5094492;28;20639;-40
2024/01/10 04:46:43;;;;;;;25.40;16.47;;;-3.60;1.00;;;;;;5094153;28;20180;-41
2024/01/10 04:49:08;;;;;;;33.83;18.40;;;-3.60;1.00;;;;;;5093928;28;20419;-41
2024/01/10 04:51:34;;;;;;;22.70;16.37;;;-3.70;1.00;;;;;;5094810;28;20179;-41
2024/01/10 04:54:00;;;;;;;22.70;14.97;;;-3.80;1.00;;;;;;5097183;28;20178;-48
2024/01/10 04:56:26;;;;;;;26.97;17.80;;;-3.80;1.00;;;;;;5099676;28;20172;-40
2024/01/10 04:58:51;;;;;;;27.27;16.07;;;-3.80;1.00;;;;;;5097492;28;20180;-44
2024/01/10 05:01:17;;;;;;;23.13;16.60;;;-3.90;1.00;;;;;;5098403;28;20502;-42
2024/01/10 05:03:43;;;;;;;26.40;16.17;;;-3.90;1.00;;;;;;5098462;28;20191;-42
2024/01/10 05:06:08;;;;;;;22.77;15.20;;;-3.90;37.90;;;;;;5096721;28;20421;-42
2024/01/10 05:08:34;;;;;;;25.13;16.07;;;-3.90;88.20;;;;;;5098278;28;20168;-43
2024/01/10 05:10:59;;;;;;;25.80;15.83;;;-3.90;99.90;;;;;;5098504;28;20196;-43
2024/01/10 05:13:28;;;;;;;25.40;16.63;;;-3.90;98.00;;;;;;5095957;28;20629;-43
2024/01/10 05:15:54;;;;;;;23.03;15.87;;;-3.90;99.90;;;;;;5098068;28;20226;-43
2024/01/10 05:18:20;;;;;;;24.13;15.10;;;-3.90;99.90;;;;;;5097484;28;20899;-40
2024/01/10 05:20:46;;;;;;;24.87;15.30;;;-3.90;98.50;;;;;;5097266;28;20599;-41
2024/01/10 05:23:11;;;;;;;28.70;18.27;;;-3.90;99.90;;;;;;5094784;28;20731;-41
2024/01/10 05:25:37;;;;;;;25.07;17.03;;;-3.90;99.90;;;;;;5097900;28;20172;-41
2024/01/10 05:28:02;;;;;;;24.33;16.90;;;-3.90;99.90;;;;;;5098237;28;20180;-42
2024/01/10 05:30:28;;;;;;;23.83;15.57;;;-3.90;1.00;;;;;;5096611;28;20415;-43
2024/01/10 05:32:53;;;;;;;28.93;16.63;;;-3.80;99.90;;;;;;5097043;28;20199;-41
2024/01/10 05:35:21;;;;;;;24.27;16.13;;;-3.80;99.90;;;;;;5095859;28;20403;-41
2024/01/10 05:37:46;;;;;;;23.33;15.90;;;-3.70;99.90;;;;;;5096876;28;20668;-41
2024/01/10 05:40:12;;;;;;;26.50;17.30;;;-3.80;10.40;;;;;;5097714;28;20477;-40
2024/01/10 05:42:37;;;;;;;24.20;15.80;;;-3.80;94.80;;;;;;5097031;28;20489;-40
2024/01/10 05:45:04;;;;;;;25.23;16.60;;;-3.80;99.90;;;;;;5096105;28;20171;-40
2024/01/10 05:47:29;;;;;;;22.50;15.60;;;-3.80;99.90;;;;;;5095069;28;20280;-43
2024/01/10 05:49:55;;;;;;;24.97;16.43;;;-3.80;99.90;;;;;;5093983;28;20577;-42
2024/01/10 05:52:22;;;;;;;25.23;18.23;;;-3.80;99.90;;;;;;5094202;28;20467;-41
2024/01/10 05:54:48;;;;;;;26.50;17.20;;;-3.80;99.90;;;;;;5094955;28;20186;-42
2024/01/10 05:57:14;;;;;;;31.13;17.10;;;-3.80;99.90;;;;;;5094395;28;20410;-41
2024/01/10 05:59:40;;;;;;;24.27;17.73;;;-3.80;99.90;;;;;;5093756;28;20469;-44
2024/01/10 06:02:05;;;;;;;43.00;28.97;;;-3.80;99.90;;;;;;5094477;28;20422;-43
2024/01/10 06:04:31;;;;;;;32.70;21.87;;;-3.80;99.90;;;;;;5094779;28;20177;-42
2024/01/10 06:07:00;;;;;;;24.93;18.70;;;-3.80;99.90;;;;;;5094066;28;20261;-43
2024/01/10 06:09:25;;;;;;;29.50;18.30;;;-3.80;99.90;;;;;;5091182;28;20433;-41
2024/01/10 06:11:51;;;;;;;23.77;16.33;;;-3.90;99.90;;;;;;5093890;28;20789;-41
2024/01/10 06:14:17;;;;;;;24.43;17.70;;;-4.00;1.00;;;;;;5093715;28;20594;-41
2024/01/10 06:16:43;;;;;;;26.03;16.47;;;-4.00;1.00;;;;;;5095552;28;20208;-42
2024/01/10 06:19:10;;;;;;;30.20;18.67;;;-4.00;1.00;;;;;;5093941;28;20510;-41
2024/01/10 06:21:35;;;;;;;28.00;17.50;;;-4.00;19.30;;;;;;5095274;28;20707;-43
2024/01/10 06:24:01;;;;;;;29.40;16.97;;;-4.00;80.30;;;;;;5093682;28;20449;-42
2024/01/10 06:26:26;;;;;;;30.50;19.17;;;-4.10;98.60;;;;;;5095460;28;20204;-42
2024/01/10 06:28:52;;;;;;;30.47;17.40;;;-4.10;99.90;;;;;;5095625;28;20219;-42
2024/01/10 06:31:17;;;;;;;25.53;17.53;;;-4.10;99.90;;;;;;5093290;28;20281;-40
2024/01/10 06:33:43;;;;;;;24.77;17.20;;;-4.10;99.90;;;;;;5093638;28;20462;-41
2024/01/10 06:36:09;;;;;;;23.00;16.00;;;-4.10;99.90;;;;;;5093901;28;20255;-41
2024/01/10 06:38:34;;;;;;;26.33;18.80;;;-4.10;1.00;;;;;;5094508;28;20181;-42
2024/01/10 06:41:00;;;;;;;28.33;17.47;;;-4.10;1.00;;;;;;5094075;28;20219;-42
2024/01/10 06:43:25;;;;;;;26.83;18.17;;;-4.10;99.90;;;;;;5095319;28;20196;-43
2024/01/10 06:45:51;;;;;;;24.47;16.47;;;-4.20;1.00;;;;;;5095211;28;20173;-41
2024/01/10 06:48:18;;;;;;;24.50;17.53;;;-4.20;1.00;;;;;;5093376;28;20447;-42
2024/01/10 06:50:44;;;;;;;27.63;18.33;;;-4.30;1.00;;;;;;5092780;28;20179;-41
2024/01/10 06:53:10;;;;;;;22.90;16.93;;;-4.30;25.50;;;;;;5096493;28;20438;-41
2024/01/10 06:55:36;;;;;;;29.37;19.60;;;-4.30;59.60;;;;;;5094620;28;20620;-41
2024/01/10 06:58:02;;;;;;;25.33;16.47;;;-4.30;91.60;;;;;;5094260;28;20218;-42
2024/01/10 07:00:28;;;;;;;26.90;17.43;;;-4.30;99.90;;;;;;5093607;28;20347;-40
2024/01/10 07:02:53;;;;;;;26.77;18.60;;;-4.30;99.90;;;;;;5093153;28;20470;-41
2024/01/10 07:05:19;;;;;;;25.53;17.70;;;-4.30;99.90;;;;;;5094189;28;20522;-41
2024/01/10 07:07:45;;;;;;;28.70;18.90;;;-4.30;99.90;;;;;;5095480;28;20173;-41
2024/01/10 07:10:11;;;;;;;31.13;19.57;;;-4.30;99.90;;;;;;5093814;28;20492;-40
2024/01/10 07:12:37;;;;;;;34.23;20.63;;;-4.40;99.90;;;;;;5095459;28;20209;-41
2024/01/10 07:15:05;;;;;;;29.87;19.20;;;-4.30;99.90;;;;;;5094836;28;20490;-41
2024/01/10 07:17:31;;;;;;;29.77;18.00;;;-4.30;99.90;;;;;;5094969;28;20570;-42
2024/01/10 07:19:56;;;;;;;30.10;19.50;;;-4.30;99.90;;;;;;5095466;28;20493;-40
2024/01/10 07:22:23;;;;;;;30.07;19.97;;;-4.30;99.90;;;;;;5115459;28;20168;-40
2024/01/10 07:24:48;;;;;;;29.20;19.83;;;-4.30;99.90;;;;;;5116817;28;20619;-44
2024/01/10 07:27:14;;;;;;;26.47;17.90;;;-4.30;1.00;;;;;;5116461;28;20413;-43
2024/01/10 07:29:40;;;;;;;29.07;19.97;;;-4.40;99.90;;;;;;5116298;28;20240;-40
2024/01/10 07:32:11;;;;;;;24.33;18.70;;;-4.40;99.90;;;;;;5115957;28;20434;-41
2024/01/10 07:34:37;;;;;;;29.57;18.83;;;-4.40;1.00;;;;;;5117121;28;20883;-41
2024/01/10 07:37:03;;;;;;;30.63;18.70;;;-4.40;1.00;;;;;;5116943;28;20506;-41
2024/01/10 07:39:29;;;;;;;28.77;17.67;;;-4.40;99.90;;;;;;5115004;28;20804;-40
2024/01/10 07:41:54;;;;;;;27.93;18.30;;;-4.30;66.40;;;;;;5115355;28;20456;-40
2024/01/10 07:44:20;;;;;;;30.90;19.40;;;-4.20;1.00;;;;;;5115536;28;20448;-41
2024/01/10 07:46:45;;;;;;;27.23;18.87;;;-4.10;1.00;;;;;;5115995;28;20422;-39
2024/01/10 07:49:11;;;;;;;30.90;19.23;;;-4.00;1.00;;;;;;5115918;28;20266;-40
2024/01/10 07:51:36;;;;;;;29.50;19.97;;;-3.90;1.00;;;;;;5113517;28;20192;-42
2024/01/10 07:54:02;;;;;;;25.30;18.40;;;-3.80;99.90;;;;;;5113210;28;20198;-40
2024/01/10 07:56:28;;;;;;;32.60;18.73;;;-3.70;99.90;;;;;;5113487;28;20546;-40
2024/01/10 07:58:53;;;;;;;26.60;18.47;;;-3.60;99.90;;;;;;5115367;28;20282;-41
2024/01/10 08:01:19;;;;;;;27.10;17.37;;;-3.50;29.00;;;;;;5112952;28;20569;-42
2024/01/10 08:03:44;;;;;;;30.47;19.23;;;-3.40;1.00;;;;;;5114478;28;20176;-41
2024/01/10 08:06:12;;;;;;;32.13;21.20;;;-3.20;1.00;;;;;;5115533;28;20476;-41
2024/01/10 08:08:37;;;;;;;28.83;19.93;;;-3.00;1.00;;;;;;5116591;28;20241;-41
2024/01/10 08:11:03;;;;;;;30.20;20.33;;;-2.60;98.90;;;;;;5116053;28;20867;-40
2024/01/10 08:13:29;;;;;;;33.40;21.90;;;-2.10;1.00;;;;;;5115290;28;20188;-40
2024/01/10 08:15:54;;;;;;;28.30;18.83;;;-1.50;9.10;;;;;;5116443;27;20611;-43
2024/01/10 08:18:20;;;;;;;26.60;18.60;;;-0.80;1.00;;;;;;5113489;28;20498;-41
2024/01/10 08:20:45;;;;;;;30.90;19.60;;;-0.20;99.90;;;;;;5113107;28;20195;-44
2024/01/10 08:23:11;;;;;;;29.73;19.30;;;0.40;2.00;;;;;;5114223;28;20251;-42
2024/01/10 08:25:38;;;;;;;29.03;20.53;;;0.70;1.00;;;;;;5115888;28;20180;-44
2024/01/10 08:28:03;;;;;;;30.00;20.40;;;1.00;1.00;;;;;;5114259;28;20183;-40
2024/01/10 08:30:29;;;;;;;25.80;19.40;;;1.30;1.00;;;;;;5111716;28;20438;-40
2024/01/10 08:32:54;;;;;;;26.87;19.53;;;1.60;1.00;;;;;;5115451;28;20199;-41
2024/01/10 08:35:20;;;;;;;28.50;19.83;;;1.90;1.00;;;;;;5115842;28;20501;-39
2024/01/10 08:37:46;;;;;;;28.70;21.27;;;2.20;1.00;;;;;;5113931;28;20179;-40
2024/01/10 08:40:15;;;;;;;27.13;20.80;;;2.50;1.00;;;;;;5114267;28;20204;-40
2024/01/10 08:42:41;;;;;;;26.07;19.63;;;2.80;1.00;;;;;;5114745;28;20456;-41
2024/01/10 08:45:09;;;;;;;26.23;21.17;;;3.20;1.00;;;;;;5114448;28;20668;-42
2024/01/10 08:47:35;;;;;;;30.10;21.30;;;3.60;1.00;;;;;;5115732;28;20410;-41
2024/01/10 08:50:08;;;;;;;26.50;21.90;;;4.10;1.00;;;;;;5114491;28;20541;-42
2024/01/10 08:52:34;;;;;;;27.80;22.03;;;4.80;1.00;;;;;;5115263;28;20703;-44
2024/01/10 08:55:00;;;;;;;29.60;22.40;;;5.70;1.00;;;;;;5115181;28;20440;-43
2024/01/10 08:57:27;;;;;;;29.77;24.73;;;6.40;1.00;;;;;;5114789;28;20430;-42
2024/01/10 08:59:53;;;;;;;28.30;22.97;;;7.10;1.00;;;;;;5115437;28;20593;-40
2024/01/10 09:02:18;;;;;;;26.03;22.50;;;7.90;1.00;;;;;;5114404;28;20429;-41
2024/01/10 09:04:44;;;;;;;26.90;22.70;;;8.50;1.00;;;;;;5114341;28;20189;-45
2024/01/10 09:07:10;;;;;;;23.53;20.93;;;9.00;1.00;;;;;;5114841;28;20184;-42
2024/01/10 09:09:35;;;;;;;30.20;25.07;;;9.50;1.00;;;;;;5113244;28;20446;-41
2024/01/10 09:12:01;;;;;;;28.50;24.37;;;9.60;1.00;;;;;;5112937;28;20749;-41
2024/01/10 09:14:26;;;;;;;21.47;18.70;;;9.60;1.00;;;;;;5114971;28;20172;-41
2024/01/10 09:16:52;;;;;;;15.73;12.07;;;9.70;1.00;;;;;;5114492;28;20312;-44
2024/01/10 09:19:18;;;;;;;17.90;13.27;;;11.20;1.00;;;;;;5114094;28;20473;-47
2024/01/10 09:21:43;;;;;;;27.40;22.90;;;12.40;1.00;;;;;;5114331;28;20476;-43
2024/01/10 09:24:11;;;;;;;27.37;23.40;;;12.80;1.00;;;;;;5114417;28;20436;-42
2024/01/10 09:26:36;;;;;;;30.83;27.60;;;10.60;1.00;;;;;;5115020;28;20426;-44
2024/01/10 09:29:02;;;;;;;29.03;24.57;;;10.30;1.00;;;;;;5114957;28;20418;-45
2024/01/10 09:31:27;;;;;;;27.60;24.23;;;9.50;1.00;;;;;;5114887;28;20549;-40
2024/01/10 09:33:53;;;;;;;30.93;26.27;;;8.80;1.00;;;;;;5114692;28;20335;-44
2024/01/10 09:36:18;;;;;;;31.10;25.80;;;8.40;1.00;;;;;;5114315;28;20191;-42
2024/01/10 09:38:44;;;;;;;30.03;23.07;;;8.10;1.00;;;;;;5113590;28;20183;-40
2024/01/10 09:41:12;;;;;;;27.80;23.80;;;8.10;1.00;;;;;;5116859;28;20419;-40
2024/01/10 09:43:38;;;;;;;28.97;24.53;;;8.40;1.00;;;;;;5117622;28;20450;-43
2024/01/10 09:46:06;;;;;;;34.27;25.37;;;8.70;1.00;;;;;;5116653;28;20440;-41
2024/01/10 09:48:32;;;;;;;28.40;24.13;;;9.20;1.00;;;;;;5118449;28;20207;-40
2024/01/10 09:50:59;;;;;;;27.87;23.53;;;9.60;1.00;;;;;;5115917;28;20513;-43
2024/01/10 09:53:30;;;;;;;30.00;26.10;;;10.40;1.00;;;;;;5117355;28;20378;-41
2024/01/10 09:55:59;;;;;;;31.67;25.70;;;11.00;1.00;;;;;;5116713;28;20691;-40
2024/01/10 09:58:26;;;;;;;27.17;24.07;;;11.60;1.00;;;;;;5115369;28;20430;-46
2024/01/10 10:00:51;;;;;;;29.77;26.03;;;12.50;1.00;;;;;;5116476;28;20762;-43
2024/01/10 10:03:18;;;;;;;28.80;25.73;;;12.90;1.00;;;;;;5116554;28;20414;-40
2024/01/10 10:05:44;;;;;;;28.83;25.73;;;12.70;1.00;;;;;;5117253;28;20160;-43
2024/01/10 10:08:12;;;;;;;26.53;23.83;;;12.80;1.00;;;;;;5118719;28;20425;-42
2024/01/10 10:10:44;;;;;;;30.80;26.03;;;13.40;1.00;;;;;;5117082;28;20811;-43
2024/01/10 10:13:13;;;;;;;28.33;25.33;;;13.60;1.00;;;;;;5117568;28;20440;-40
2024/01/10 10:15:39;;;;;;;27.13;24.07;;;13.10;1.00;;;;;;5113098;28;20433;-42
2024/01/10 10:18:04;;;;;;;26.57;23.70;;;13.70;1.00;;;;;;5116410;28;20409;-41
2024/01/10 10:20:35;;;;;;;27.17;24.27;;;14.00;1.00;;;;;;5115764;28;20210;-43
2024/01/10 10:23:06;;;;;;;28.70;25.63;;;14.40;1.00;;;;;;5116515;28;20313;-43
2024/01/10 10:25:45;;;;;;;27.33;24.50;;;13.90;1.00;;;;;;5115306;28;20494;-42
2024/01/10 10:28:11;;;;;;;26.93;24.03;;;13.80;1.00;;;;;;5114922;28;20421;-42
2024/01/10 10:30:36;;;;;;;28.10;25.17;;;14.70;1.00;;;;;;5117117;28;20437;-43
2024/01/10 10:33:03;;;;;;;26.93;24.03;;;15.30;1.00;;;;;;5116647;28;20236;-44
2024/01/10 10:35:28;;;;;;;28.40;25.30;;;15.80;1.00;;;;;;5114327;28;20243;-43
2024/01/10 10:37:54;;;;;;;26.87;23.63;;;15.00;1.00;;;;;;5114284;28;20426;-44
2024/01/10 10:40:20;;;;;;;27.60;24.07;;;14.70;1.00;;;;;;5113523;28;20272;-41
2024/01/10 10:42:57;;;;;;;31.93;24.87;;;14.30;1.00;;;;;;5113899;28;20300;-41
2024/01/10 10:45:26;;;;;;;28.93;25.40;;;13.70;1.00;;;;;;5116098;28;20837;-41
2024/01/10 10:47:59;;;;;;;26.43;23.57;;;13.00;1.00;;;;;;5116489;28;20414;-43
2024/01/10 10:50:29;;;;;;;26.60;23.90;;;12.50;1.00;;;;;;5115967;28;20433;-40
2024/01/10 10:52:55;;;;;;;28.17;23.50;;;12.40;1.00;;;;;;5116347;28;20422;-41
2024/01/10 10:55:23;;;;;;;28.83;25.73;;;12.40;1.00;;;;;;5115495;28;20421;-41
2024/01/10 10:57:49;;;;;;;30.30;26.40;;;12.40;1.00;;;;;;5115378;28;20453;-41
2024/01/10 11:00:21;;;;;;;28.50;25.40;;;11.90;1.00;;;;;;5115227;28;20560;-42
2024/01/10 11:02:47;;;;;;;28.53;25.50;;;11.40;1.00;;;;;;5115258;28;20706;-42
2024/01/10 11:05:12;;;;;;;27.60;23.90;;;11.50;1.00;;;;;;5112825;28;20433;-43
2024/01/10 11:07:39;;;;;;;24.47;21.97;;;11.90;1.00;;;;;;5117179;28;20180;-42
2024/01/10 11:10:25;;;;;;;29.47;26.30;;;12.30;1.00;;;;;;5115385;28;20203;-42
2024/01/10 11:13:27;;;;;;;28.53;25.63;;;12.70;1.00;;;;;;5115976;28;20860;-42
2024/01/10 11:16:12;;;;;;;28.47;25.70;;;12.30;1.00;;;;;;5105863;28;20820;-43
2024/01/10 11:18:43;;;;;;;30.03;25.67;;;12.00;1.00;;;;;;5095405;28;20411;-42
2024/01/10 11:21:25;;;;;;;27.90;24.90;;;12.50;1.00;;;;;;5095754;28;20504;-41
2024/01/10 11:23:53;;;;;;;29.33;26.23;;;13.40;1.00;;;;;;5095830;28;20783;-41
2024/01/10 11:26:20;;;;;;;26.57;23.77;;;14.10;1.00;;;;;;5093586;28;20422;-45
2024/01/10 11:28:46;;;;;;;29.00;26.00;;;14.60;1.00;;;;;;5092758;28;20566;-43
2024/01/10 11:31:13;;;;;;;26.83;24.13;;;15.20;1.00;;;;;;5094279;28;20479;-46
2024/01/10 11:33:48;;;;;;;26.33;23.73;;;16.20;1.00;;;;;;5096715;28;20419;-41
2024/01/10 11:36:15;;;;;;;27.93;25.13;;;16.80;1.00;;;;;;5096448;28;20476;-44
2024/01/10 11:38:42;;;;;;;28.13;25.33;;;16.60;1.00;;;;;;5096459;28;20429;-42
2024/01/10 11:41:10;;;;;;;27.67;24.83;;;16.70;1.00;;;;;;5096514;28;20498;-44
2024/01/10 11:43:36;;;;;;;26.17;23.63;;;16.70;1.00;;;;;;5094282;28;20427;-43
2024/01/10 11:46:04;;;;;;;28.40;25.27;;;17.30;1.00;;;;;;5094400;28;20968;-41
2024/01/10 11:48:33;;;;;;;26.30;23.70;;;17.70;1.00;;;;;;5094065;28;20190;-45
2024/01/10 11:51:00;;;;;;;25.93;23.40;;;18.00;1.00;;;;;;5095090;28;20437;-42
2024/01/10 11:53:50;;;;;;;27.43;24.70;;;17.60;1.00;;;;;;5093987;28;20667;-43
2024/01/10 11:56:16;;;;;;;28.63;25.83;;;17.70;1.00;;;;;;5096267;28;20604;-41
2024/01/10 11:59:02;;;;;;;26.47;23.90;;;18.30;1.00;;;;;;5096009;28;20458;-41
2024/01/10 12:01:28;;;;;;;26.80;24.10;;;18.60;1.00;;;;;;5096055;28;20530;-42
2024/01/10 12:03:54;;;;;;;29.67;25.93;;;18.40;1.00;;;;;;5077800;28;20906;-42
2024/01/10 12:06:21;;;;;;;26.50;23.90;;;17.40;1.00;;;;;;5095309;28;20169;-41
2024/01/10 12:08:46;;;;;;;26.83;24.20;;;17.00;1.00;;;;;;5095453;28;20430;-42
2024/01/10 12:11:12;;;;;;;24.60;22.10;;;17.50;1.00;;;;;;5095810;28;20422;-43
2024/01/10 12:13:37;;;;;;;27.20;24.60;;;18.00;1.00;;;;;;5094219;28;20180;-43
2024/01/10 12:16:03;;;;;;;25.90;23.30;;;18.00;1.00;;;;;;5091759;28;20208;-43
2024/01/10 12:18:29;;;;;;;25.87;23.27;;;17.70;1.00;;;;;;5090990;28;20204;-41
2024/01/10 12:20:54;;;;;;;26.97;24.17;;;17.50;1.00;;;;;;5096216;28;20208;-44
2024/01/10 12:23:20;;;;;;;25.93;23.10;;;17.10;1.00;;;;;;5114054;28;20176;-41
2024/01/10 12:25:46;;;;;;;25.40;23.00;;;17.20;1.00;;;;;;5112819;28;20206;-41
2024/01/10 12:28:16;;;;;;;25.30;22.80;;;16.30;1.00;;;;;;5110242;28;20557;-45
2024/01/10 12:30:41;;;;;;;25.27;22.67;;;16.10;1.00;;;;;;5109760;28;20829;-43